Startpagina
METAR-TAF:

METAR-TAF

Vliegvelden :

Ndjamena, Tsjaad

breedte: 12-08N, lengte: 015-02E, hoogte: 295 m

Actueel weer

Dit bericht is 1 uur en het 20 minuten geleden gemaakt, om 05:00 UTC
Wind 5 kt uit het noordnoordoosten
Temperatuur 12°C
Vochtigheid 24%
Druk 1013 hPa
Zicht: 6000 m

METAR: FTTJ 180500Z 02005KT 6000 NSC 12/M08 Q1013 NOSIG

Tijdstip: 07:20 (06:20 UTC)

Verwachting

Dit bericht is 1 uur en het 20 minuten geleden gemaakt, om 05:00 UTC
Verwachting geldig van 18 om 06 UTC tot 19 om 12 UTC
Wind 8 kt uit het noordnoordoosten
Zicht: 6000 m
Tijdelijke
van 18 om 06 UTC tot 18 om 12 UTC
Zicht: 4500 m
Heiigheid

TAF: FTTJ 180500Z 1806/1912 02008KT 6000 NSC TEMPO 1806/1812 4500 HZ

Waarnemingen en weersverwachtingen van meer dan 4000 vliegvelden (METAR en TAF).

De beschikbare stations zijn de gele en rode punten op de kaart.

Ga met uw muis naar het station om de naam te zien.

Klik dan om waarnemingen en weersverwachtingen te zien.

kaart wijzigen: klik op de groene knoppen met een zwart kruis om in te zoomen, op de groene knop met een streepje om uit te zoomen of op de groene pijlen voor aangrenzende kaarten.


METAR-TAF: